Cokato, MN (55321)

9:08 AM CST on December 05, 2016 (GMT -0600)
Cokato | | Change Station

Elev 994 ft 45.09 °N, 94.17 °W | Updated 7 minutes ago

Scattered Clouds
Scattered Clouds
31.6 °F
Feels Like 32 °F
N
0.0
Wind Variable Wind from ENE
Gusts 0.0 mph

Today
High -- | Low -- °F
--% Chance of Precip.
Yesterday
High -- | Low -- °F
Precip. -- in
Pressure 29.74 in
Visibility 10.0 miles
Clouds Scattered Clouds 10000 ft
Windchill 32 °F
Dew Point 31 °F
Humidity 96%
Rainfall 0.00 in
Snow Depth Not available.
7:39 AM 4:35 PM
Waxing Crescent, 32% visible
METAR KMGG 051453Z AUTO 12004KT 10SM SCT100 00/00 A2974 RMK AO2 T00000000
Pressure 29.74 in
Visibility 10.0 miles
Clouds Scattered Clouds 10000 ft
Windchill 32 °F
Dew Point 31 °F
Humidity 96%
Rainfall 0.00 in
Snow Depth Not available.
7:39 AM 4:35 PM
Waxing Crescent, 32% visible
METAR KMGG 051453Z AUTO 12004KT 10SM SCT100 00/00 A2974 RMK AO2 T00000000

10-Day Weather Forecast

Almanac

Astronomy

Dec. 05, 2016 Rise Set
Actual Time
Civil Twilight
Nautical Twilight
Astronomical Twilight
Moon
Length of Visible Light
Length of Day
Tomorrow will be .
, % of the Moon is Illuminated

Today's Extremes

State Highs State Lows

Community

WunderPhotos

Upload Photos

1,955,787 photos uploaded!

WunderBlog® & News

Nearby

Air Quality

  Air Quality AQ Index Pollutant
Not available.

Snow Depth

Station Depth Elevation

Earthquake Activity

City Distance Mag. Time & Date
Minimum magnitude displayed is 2.5.

Coastal Water Temperatures

Place Temperature

Stations

Nearby Weather Stations

Station Location Temp. Windchill Dew Point Humidity Wind Precip. Elev Updated Type
                   

Watches & Warnings

There are currently no watches in effect.